createdAt,value
2018-03-18T00:00:05.604Z,-1.1
2018-03-18T00:01:07.627Z,-1.0
2018-03-18T00:02:09.666Z,-1.0
2018-03-18T00:03:11.654Z,-1.1
2018-03-18T00:04:13.388Z,-1.1
2018-03-18T00:05:15.060Z,-1.0
2018-03-18T00:06:16.985Z,-1.1
2018-03-18T00:07:18.691Z,-1.0
2018-03-18T00:08:20.897Z,-1.1
2018-03-18T00:09:22.814Z,-1.1
2018-03-18T00:10:24.387Z,-1.1
2018-03-18T00:11:26.151Z,-1.0
2018-03-18T00:12:28.109Z,-1.1
2018-03-18T00:13:30.157Z,-1.2
2018-03-18T00:14:31.726Z,-1.1
2018-03-18T00:15:33.897Z,-1.1
2018-03-18T00:16:36.064Z,-1.2
2018-03-18T00:17:37.964Z,-1.1
2018-03-18T00:18:39.941Z,-1.1
2018-03-18T00:19:41.903Z,-1.1
2018-03-18T00:20:43.454Z,-1.1
2018-03-18T00:21:45.598Z,-1.1
2018-03-18T00:22:47.506Z,-1.1
2018-03-18T00:23:49.564Z,-1.1
2018-03-18T00:24:51.265Z,-1.1
2018-03-18T00:25:52.826Z,-1.0
2018-03-18T00:26:54.824Z,-1.1
2018-03-18T00:27:56.678Z,-1.0
2018-03-18T00:28:58.343Z,-1.0
2018-03-18T00:30:00.310Z,-1.1
2018-03-18T00:31:01.960Z,-1.0
2018-03-18T00:32:04.105Z,-1.1
2018-03-18T00:33:06.023Z,-1.0
2018-03-18T00:34:07.759Z,-1.1
2018-03-18T00:35:09.511Z,-1.1
2018-03-18T00:36:11.280Z,-1.1
2018-03-18T00:37:12.828Z,-1.1
2018-03-18T00:38:14.523Z,-1.1
2018-03-18T00:39:16.459Z,-1.1
2018-03-18T00:40:18.040Z,-1.2
2018-03-18T00:41:20.020Z,-1.1
2018-03-18T00:42:22.068Z,-1.1
2018-03-18T00:43:24.181Z,-1.1
2018-03-18T00:44:26.403Z,-1.1
2018-03-18T00:45:28.367Z,-1.1
2018-03-18T00:46:29.950Z,-1.1
2018-03-18T00:47:31.944Z,-1.1
2018-03-18T00:48:33.574Z,-1.1
2018-03-18T00:49:35.472Z,-1.1
2018-03-18T00:50:37.388Z,-1.1
2018-03-18T00:51:39.008Z,-1.1
2018-03-18T00:52:40.587Z,-1.2
2018-03-18T00:53:42.290Z,-1.1
2018-03-18T00:54:44.170Z,-1.0
2018-03-18T00:55:45.758Z,-1.0
2018-03-18T00:56:47.914Z,-1.0
2018-03-18T00:57:49.814Z,-1.1
2018-03-18T00:58:51.433Z,-1.1
2018-03-18T00:59:53.523Z,-1.1
2018-03-18T01:00:55.513Z,-1.2
2018-03-18T01:01:57.588Z,-1.1
2018-03-18T01:02:59.561Z,-1.2
2018-03-18T01:04:01.669Z,-1.2
2018-03-18T01:05:03.362Z,-1.2
2018-03-18T01:06:05.076Z,-1.1
2018-03-18T01:07:06.726Z,-1.1
2018-03-18T01:08:08.405Z,-1.1
2018-03-18T01:09:10.468Z,-1.1
2018-03-18T01:10:12.122Z,-1.1
2018-03-18T01:11:13.752Z,-1.2
2018-03-18T01:12:15.350Z,-1.3
2018-03-18T01:13:16.901Z,-1.2
2018-03-18T01:14:18.525Z,-1.2
2018-03-18T01:15:20.767Z,-1.2
2018-03-18T01:16:22.351Z,-1.2
2018-03-18T01:17:23.965Z,-1.2
2018-03-18T01:18:26.112Z,-1.2
2018-03-18T01:19:27.728Z,-1.3
2018-03-18T01:20:29.845Z,-1.2
2018-03-18T01:21:31.486Z,-1.2
2018-03-18T01:22:33.479Z,-1.2
2018-03-18T01:23:35.388Z,-1.2
2018-03-18T01:24:37.076Z,-1.2
2018-03-18T01:25:38.986Z,-1.2
2018-03-18T01:26:41.074Z,-1.3
2018-03-18T01:27:43.232Z,-1.3
2018-03-18T01:28:45.045Z,-1.3
2018-03-18T01:29:46.735Z,-1.3
2018-03-18T01:30:48.678Z,-1.3
2018-03-18T01:31:50.182Z,-1.3
2018-03-18T01:32:51.706Z,-1.2
2018-03-18T01:33:53.877Z,-1.2
2018-03-18T01:34:55.521Z,-1.3
2018-03-18T01:35:57.533Z,-1.3
2018-03-18T01:36:59.200Z,-1.3
2018-03-18T01:38:00.867Z,-1.3
2018-03-18T01:39:02.957Z,-1.3
2018-03-18T01:40:04.865Z,-1.3
2018-03-18T01:41:06.384Z,-1.3
2018-03-18T01:42:08.464Z,-1.3
2018-03-18T01:43:10.756Z,-1.3
2018-03-18T01:44:12.893Z,-1.3
2018-03-18T01:45:14.450Z,-1.3
2018-03-18T01:46:16.594Z,-1.2
2018-03-18T01:47:18.511Z,-1.3
2018-03-18T01:48:20.446Z,-1.3
2018-03-18T01:49:22.445Z,-1.3
2018-03-18T01:50:24.160Z,-1.2
2018-03-18T01:51:25.844Z,-1.3
2018-03-18T01:52:27.368Z,-1.2
2018-03-18T01:53:28.938Z,-1.3
2018-03-18T01:54:30.637Z,-1.3
2018-03-18T01:55:32.698Z,-1.3
2018-03-18T01:56:34.353Z,-1.3
2018-03-18T01:57:36.220Z,-1.3
2018-03-18T01:58:38.218Z,-1.2
2018-03-18T01:59:40.273Z,-1.3
2018-03-18T02:00:41.784Z,-1.3
2018-03-18T02:01:43.763Z,-1.3
2018-03-18T02:02:45.730Z,-1.4
2018-03-18T02:03:47.211Z,-1.3
2018-03-18T02:04:48.741Z,-1.3
2018-03-18T02:05:50.746Z,-1.3
2018-03-18T02:06:52.654Z,-1.4
2018-03-18T02:07:54.680Z,-1.3
2018-03-18T02:08:56.778Z,-1.4
2018-03-18T02:09:58.725Z,-1.4
2018-03-18T02:11:00.859Z,-1.3
2018-03-18T02:12:02.492Z,-1.3
2018-03-18T02:13:04.150Z,-1.3
2018-03-18T02:14:06.106Z,-1.3
2018-03-18T02:15:07.835Z,-1.3
2018-03-18T02:16:09.860Z,-1.3
2018-03-18T02:17:11.483Z,-1.3
2018-03-18T02:18:13.023Z,-1.3
2018-03-18T02:19:15.079Z,-1.3
2018-03-18T02:20:16.985Z,-1.2
2018-03-18T02:21:18.911Z,-1.3
2018-03-18T02:22:20.940Z,-1.3
2018-03-18T02:23:23.008Z,-1.2
2018-03-18T02:24:25.034Z,-1.3
2018-03-18T02:25:26.733Z,-1.3
2018-03-18T02:26:28.248Z,-1.3
2018-03-18T02:27:29.848Z,-1.3
2018-03-18T02:28:31.414Z,-1.4
2018-03-18T02:29:33.341Z,-1.3
2018-03-18T02:30:35.155Z,-1.3
2018-03-18T02:31:37.057Z,-1.3
2018-03-18T02:32:38.998Z,-1.4
2018-03-18T02:33:40.710Z,-1.2
2018-03-18T02:34:42.420Z,-1.2
2018-03-18T02:35:44.408Z,-1.3
2018-03-18T02:36:46.341Z,-1.2
2018-03-18T02:37:47.832Z,-1.2
2018-03-18T02:38:49.321Z,-1.3
2018-03-18T02:39:51.012Z,-1.3
2018-03-18T02:40:52.850Z,-1.3
2018-03-18T02:41:54.843Z,-1.3
2018-03-18T02:42:56.761Z,-1.2
2018-03-18T02:43:58.707Z,-1.3
2018-03-18T02:45:00.612Z,-1.3
2018-03-18T02:46:02.211Z,-1.3
2018-03-18T02:47:03.836Z,-1.3
2018-03-18T02:48:05.481Z,-1.3
2018-03-18T02:49:07.430Z,-1.2
2018-03-18T02:50:09.473Z,-1.2
2018-03-18T02:51:11.450Z,-1.2
2018-03-18T02:52:13.370Z,-1.2
2018-03-18T02:53:15.511Z,-1.3
2018-03-18T02:54:17.129Z,-1.3
2018-03-18T02:55:18.959Z,-1.3
2018-03-18T02:56:21.621Z,-1.3
2018-03-18T02:57:23.151Z,-1.3
2018-03-18T02:58:25.023Z,-1.4
2018-03-18T02:59:26.616Z,-1.3
2018-03-18T03:00:28.630Z,-1.3
2018-03-18T03:01:30.579Z,-1.2
2018-03-18T03:02:32.082Z,-1.2
2018-03-18T03:03:34.028Z,-1.2
2018-03-18T03:04:35.909Z,-1.2
2018-03-18T03:05:37.900Z,-1.2
2018-03-18T03:06:39.894Z,-1.2
2018-03-18T03:07:42.004Z,-1.3
2018-03-18T03:08:43.567Z,-1.3
2018-03-18T03:09:45.244Z,-1.3
2018-03-18T03:10:46.918Z,-1.3
2018-03-18T03:11:48.531Z,-1.3
2018-03-18T03:12:50.100Z,-1.2
2018-03-18T03:13:52.117Z,-1.4
2018-03-18T03:14:54.015Z,-1.3
2018-03-18T03:15:55.602Z,-1.2
2018-03-18T03:16:57.530Z,-1.3
2018-03-18T03:17:59.434Z,-1.2
2018-03-18T03:19:01.308Z,-1.2
2018-03-18T03:20:03.143Z,-1.2
2018-03-18T03:21:05.056Z,-1.2
2018-03-18T03:22:06.921Z,-1.2
2018-03-18T03:23:08.769Z,-1.2
2018-03-18T03:24:10.502Z,-1.2
2018-03-18T03:25:12.184Z,-1.3
2018-03-18T03:26:14.205Z,-1.3
2018-03-18T03:27:15.755Z,-1.3
2018-03-18T03:28:17.516Z,-1.3
2018-03-18T03:29:19.137Z,-1.3
2018-03-18T03:30:20.805Z,-1.4
2018-03-18T03:31:22.396Z,-1.5
2018-03-18T03:32:24.373Z,-1.5
2018-03-18T03:33:25.984Z,-1.4
2018-03-18T03:34:27.696Z,-1.3
2018-03-18T03:35:29.233Z,-1.2
2018-03-18T03:36:30.863Z,-1.4
2018-03-18T03:37:32.776Z,-1.4
2018-03-18T03:38:34.399Z,-1.5
2018-03-18T03:39:36.141Z,-1.5
2018-03-18T03:40:38.565Z,-1.4
2018-03-18T03:41:40.672Z,-1.4
2018-03-18T03:42:42.611Z,-1.4
2018-03-18T03:43:44.279Z,-1.5
2018-03-18T03:44:46.396Z,-1.4
2018-03-18T03:45:48.386Z,-1.4
2018-03-18T03:46:50.538Z,-1.4
2018-03-18T03:47:52.466Z,-1.4
2018-03-18T03:48:54.504Z,-1.5
2018-03-18T03:49:56.220Z,-1.4
2018-03-18T03:50:57.814Z,-1.4
2018-03-18T03:51:59.710Z,-1.5
2018-03-18T03:53:01.541Z,-1.6
2018-03-18T03:54:03.123Z,-1.6
2018-03-18T03:55:05.065Z,-1.6
2018-03-18T03:56:06.599Z,-1.6
2018-03-18T03:57:08.716Z,-1.6
2018-03-18T03:58:10.357Z,-1.6
2018-03-18T03:59:12.406Z,-1.6
2018-03-18T04:00:13.977Z,-1.6
2018-03-18T04:01:15.653Z,-1.6
2018-03-18T04:02:17.537Z,-1.5
2018-03-18T04:03:19.696Z,-1.5
2018-03-18T04:04:21.582Z,-1.5
2018-03-18T04:05:23.465Z,-1.5
2018-03-18T04:06:25.420Z,-1.5
2018-03-18T04:07:27.207Z,-1.6
2018-03-18T04:08:28.950Z,-1.6
2018-03-18T04:09:30.794Z,-1.6
2018-03-18T04:10:32.493Z,-1.7
2018-03-18T04:11:34.491Z,-1.6
2018-03-18T04:12:36.377Z,-1.6
2018-03-18T04:13:38.328Z,-1.7
2018-03-18T04:14:40.471Z,-1.7
2018-03-18T04:15:42.034Z,-1.6
2018-03-18T04:16:43.965Z,-1.7
2018-03-18T04:17:46.023Z,-1.6
2018-03-18T04:18:47.868Z,-1.6
2018-03-18T04:19:49.886Z,-1.6
2018-03-18T04:20:51.594Z,-1.7
2018-03-18T04:21:53.290Z,-1.7
2018-03-18T04:22:54.993Z,-1.6
2018-03-18T04:23:56.946Z,-1.6
2018-03-18T04:24:58.562Z,-1.7
2018-03-18T04:26:00.436Z,-1.7
2018-03-18T04:27:01.987Z,-1.7
2018-03-18T04:28:03.595Z,-1.7
2018-03-18T04:29:05.359Z,-1.7
2018-03-18T04:30:07.550Z,-1.7
2018-03-18T04:31:09.240Z,-1.7
2018-03-18T04:32:10.809Z,-1.6
2018-03-18T04:33:12.926Z,-1.6
2018-03-18T04:34:14.632Z,-1.6
2018-03-18T04:35:16.524Z,-1.7
2018-03-18T04:36:18.409Z,-1.6
2018-03-18T04:37:19.987Z,-1.6
2018-03-18T04:38:21.620Z,-1.7
2018-03-18T04:39:23.525Z,-1.7
2018-03-18T04:40:25.418Z,-1.7
2018-03-18T04:41:27.270Z,-1.9
2018-03-18T04:42:28.897Z,-1.7
2018-03-18T04:43:30.466Z,-1.8
2018-03-18T04:44:32.442Z,-1.8
2018-03-18T04:45:34.095Z,-1.7
2018-03-18T04:46:36.017Z,-1.7
2018-03-18T04:47:37.943Z,-1.8
2018-03-18T04:48:39.921Z,-1.8
2018-03-18T04:49:41.851Z,-1.7
2018-03-18T04:50:43.828Z,-1.7
2018-03-18T04:51:45.299Z,-1.7
2018-03-18T04:52:46.996Z,-1.8
2018-03-18T04:53:48.570Z,-1.8
2018-03-18T04:54:50.232Z,-1.8
2018-03-18T04:55:51.701Z,-1.7
2018-03-18T04:56:53.607Z,-1.8
2018-03-18T04:57:55.234Z,-1.7
2018-03-18T04:58:56.873Z,-1.7
2018-03-18T04:59:58.765Z,-1.8
2018-03-18T05:01:00.650Z,-1.9
2018-03-18T05:02:02.593Z,-1.9
2018-03-18T05:03:04.179Z,-1.8
2018-03-18T05:04:05.884Z,-1.8
2018-03-18T05:05:07.546Z,-1.8
2018-03-18T05:06:09.500Z,-1.9
2018-03-18T05:07:11.497Z,-1.8
2018-03-18T05:08:13.108Z,-1.9
2018-03-18T05:09:15.079Z,-1.8
2018-03-18T05:10:16.645Z,-1.8
2018-03-18T05:11:18.327Z,-1.8
2018-03-18T05:12:20.184Z,-1.7
2018-03-18T05:13:22.038Z,-1.7
2018-03-18T05:14:23.606Z,-1.8
2018-03-18T05:15:25.433Z,-1.8
2018-03-18T05:16:27.522Z,-1.8
2018-03-18T05:17:29.333Z,-1.9
2018-03-18T05:18:31.208Z,-1.8
2018-03-18T05:19:33.111Z,-1.9
2018-03-18T05:20:35.125Z,-1.9
2018-03-18T05:21:37.448Z,-1.9
2018-03-18T05:22:39.049Z,-2.0
2018-03-18T05:23:40.539Z,-1.9
2018-03-18T05:24:42.174Z,-2.0
2018-03-18T05:25:43.786Z,-1.9
2018-03-18T05:26:45.758Z,-1.9
2018-03-18T05:27:47.652Z,-1.8
2018-03-18T05:28:49.374Z,-1.9
2018-03-18T05:29:51.275Z,-1.8
2018-03-18T05:30:53.213Z,-1.9
2018-03-18T05:31:55.261Z,-1.9
2018-03-18T05:32:56.976Z,-1.8
2018-03-18T05:33:58.922Z,-1.8
2018-03-18T05:35:00.782Z,-2.0
2018-03-18T05:36:02.481Z,-1.9
2018-03-18T05:37:04.336Z,-1.8
2018-03-18T05:38:05.968Z,-1.8
2018-03-18T05:39:07.669Z,-1.8
2018-03-18T05:40:09.756Z,-1.9
2018-03-18T05:41:11.602Z,-2.0
2018-03-18T05:42:13.271Z,-1.8
2018-03-18T05:43:14.800Z,-1.8
2018-03-18T05:44:16.364Z,-1.8
2018-03-18T05:45:18.229Z,-1.7
2018-03-18T05:46:20.365Z,-1.8
2018-03-18T05:47:22.366Z,-1.8
2018-03-18T05:48:23.999Z,-1.9
2018-03-18T05:49:25.793Z,-1.8
2018-03-18T05:50:27.305Z,-1.9
2018-03-18T05:51:29.190Z,-2.0
2018-03-18T05:52:30.808Z,-1.9
2018-03-18T05:53:32.727Z,-2.0
2018-03-18T05:54:34.581Z,-2.0
2018-03-18T05:55:36.583Z,-2.1
2018-03-18T05:56:38.576Z,-1.9
2018-03-18T05:57:40.585Z,-1.9
2018-03-18T05:58:42.272Z,-1.9
2018-03-18T05:59:44.171Z,-1.9
2018-03-18T06:00:45.754Z,-1.9
2018-03-18T06:01:47.441Z,-2.0
2018-03-18T06:02:49.364Z,-1.9
2018-03-18T06:03:51.177Z,-1.9
2018-03-18T06:04:53.071Z,-1.9
2018-03-18T06:05:54.960Z,-1.9
2018-03-18T06:06:56.795Z,-1.8
2018-03-18T06:07:58.777Z,-1.9
2018-03-18T06:09:00.687Z,-1.9
2018-03-18T06:10:02.359Z,-1.9
2018-03-18T06:11:03.929Z,-1.9
2018-03-18T06:12:05.547Z,-1.8
2018-03-18T06:13:07.320Z,-1.9
2018-03-18T06:14:08.959Z,-1.8
2018-03-18T06:15:10.932Z,-1.9
2018-03-18T06:16:12.712Z,-1.8
2018-03-18T06:17:14.449Z,-1.7
2018-03-18T06:18:16.442Z,-1.7
2018-03-18T06:19:18.429Z,-1.8
2018-03-18T06:20:19.995Z,-1.9
2018-03-18T06:21:21.703Z,-1.9
2018-03-18T06:22:23.717Z,-1.8
2018-03-18T06:23:25.629Z,-1.9
2018-03-18T06:24:27.297Z,-1.9
2018-03-18T06:25:29.273Z,-1.9
2018-03-18T06:26:31.160Z,-1.8
2018-03-18T06:27:33.263Z,-1.8
2018-03-18T06:28:35.301Z,-1.9
2018-03-18T06:29:37.266Z,-1.9
2018-03-18T06:30:39.200Z,-2.0
2018-03-18T06:31:40.971Z,-2.0
2018-03-18T06:32:42.508Z,-1.8
2018-03-18T06:33:44.251Z,-1.8
2018-03-18T06:34:46.076Z,-1.8
2018-03-18T06:35:47.993Z,-1.7
2018-03-18T06:36:49.901Z,-1.8
2018-03-18T06:37:51.922Z,-1.8
2018-03-18T06:38:53.594Z,-1.9
2018-03-18T06:39:55.185Z,-1.8
2018-03-18T06:40:56.679Z,-1.9
2018-03-18T06:41:58.270Z,-1.9
2018-03-18T06:42:59.903Z,-1.9
2018-03-18T06:44:01.447Z,-1.9
2018-03-18T06:45:02.912Z,-1.9
2018-03-18T06:46:04.549Z,-2.0
2018-03-18T06:47:06.251Z,-1.9
2018-03-18T06:48:07.898Z,-2.0
2018-03-18T06:49:09.618Z,-1.9
2018-03-18T06:50:11.641Z,-1.8
2018-03-18T06:51:13.546Z,-1.8
2018-03-18T06:52:15.448Z,-1.8
2018-03-18T06:53:17.227Z,-1.9
2018-03-18T06:54:19.080Z,-1.9
2018-03-18T06:55:20.892Z,-1.8
2018-03-18T06:56:22.353Z,-1.8
2018-03-18T06:57:23.952Z,-1.8
2018-03-18T06:58:25.471Z,-1.7
2018-03-18T06:59:27.079Z,-1.9
2018-03-18T07:00:28.648Z,-1.8
2018-03-18T07:01:30.258Z,-1.8
2018-03-18T07:02:31.838Z,-1.7
2018-03-18T07:03:33.394Z,-1.8
2018-03-18T07:04:35.246Z,-1.8
2018-03-18T07:05:36.863Z,-1.8
2018-03-18T07:06:38.499Z,-1.9
2018-03-18T07:07:40.044Z,-1.8
2018-03-18T07:08:41.588Z,-1.7
2018-03-18T07:09:43.110Z,-1.8
2018-03-18T07:10:44.810Z,-1.6
2018-03-18T07:11:46.533Z,-1.6
2018-03-18T07:12:48.095Z,-1.6
2018-03-18T07:13:49.895Z,-1.6
2018-03-18T07:14:51.849Z,-1.5
2018-03-18T07:15:53.365Z,-1.5
2018-03-18T07:16:55.224Z,-1.5
2018-03-18T07:17:56.938Z,-1.5
2018-03-18T07:18:58.469Z,-1.4
2018-03-18T07:20:00.062Z,-1.5
2018-03-18T07:21:01.717Z,-1.4
2018-03-18T07:22:03.263Z,-1.3
2018-03-18T07:23:04.819Z,-1.2
2018-03-18T07:24:06.493Z,-1.2
2018-03-18T07:25:08.271Z,-1.2
2018-03-18T07:26:09.876Z,-1.2
2018-03-18T07:27:11.404Z,-1.2
2018-03-18T07:28:12.910Z,-1.2
2018-03-18T07:29:14.452Z,-1.3
2018-03-18T07:30:16.056Z,-1.3
2018-03-18T07:31:17.875Z,-1.3
2018-03-18T07:32:19.555Z,-1.4
2018-03-18T07:33:21.323Z,-1.3
2018-03-18T07:34:23.287Z,-1.3
2018-03-18T07:35:24.912Z,-1.2
2018-03-18T07:36:26.804Z,-1.3
2018-03-18T07:37:28.441Z,-1.2
2018-03-18T07:38:30.134Z,-1.0
2018-03-18T07:39:31.728Z,-0.9
2018-03-18T07:40:33.489Z,-0.8
2018-03-18T07:41:35.334Z,-0.8
2018-03-18T07:42:37.324Z,-0.6
2018-03-18T07:43:38.781Z,-0.4
2018-03-18T07:44:40.639Z,-0.5
2018-03-18T07:45:42.218Z,-0.3
2018-03-18T07:46:44.271Z,-0.2
2018-03-18T07:47:46.252Z,-0.2
2018-03-18T07:48:48.095Z,-0.1
2018-03-18T07:49:49.927Z,-0.2
2018-03-18T07:50:51.841Z,-0.4
2018-03-18T07:51:53.615Z,-0.6
2018-03-18T07:52:55.539Z,-0.5
2018-03-18T07:53:57.179Z,-0.6
2018-03-18T07:54:58.766Z,-0.6
2018-03-18T07:56:00.381Z,-0.6
2018-03-18T07:57:02.597Z,-0.5
2018-03-18T07:58:04.469Z,-0.3
2018-03-18T07:59:06.011Z,-0.3
2018-03-18T08:00:07.663Z,-0.0
2018-03-18T08:01:09.153Z,0.0
2018-03-18T08:02:10.683Z,0.2
2018-03-18T08:03:12.573Z,0.5
2018-03-18T08:04:14.169Z,0.5
2018-03-18T08:05:16.232Z,0.3
2018-03-18T08:06:17.866Z,0.4
2018-03-18T08:07:19.913Z,0.4
2018-03-18T08:08:21.592Z,0.6
2018-03-18T08:09:23.653Z,0.6
2018-03-18T08:10:25.357Z,0.9
2018-03-18T08:11:26.877Z,0.9
2018-03-18T08:12:28.482Z,1.0
2018-03-18T08:13:30.285Z,0.9
2018-03-18T08:14:31.889Z,1.1
2018-03-18T08:15:33.495Z,1.1
2018-03-18T08:16:35.546Z,1.1
2018-03-18T08:17:37.240Z,1.0
2018-03-18T08:18:38.818Z,1.0
2018-03-18T08:19:40.533Z,0.9
2018-03-18T08:20:42.221Z,1.1
2018-03-18T08:21:43.879Z,0.9
2018-03-18T08:22:45.648Z,0.6
2018-03-18T08:23:47.546Z,0.5
2018-03-18T08:24:49.465Z,0.4
2018-03-18T08:25:51.196Z,0.4
2018-03-18T08:26:52.873Z,0.5
2018-03-18T08:27:54.557Z,0.4
2018-03-18T08:28:56.293Z,0.5
2018-03-18T08:29:58.228Z,0.5
2018-03-18T08:31:00.128Z,0.4
2018-03-18T08:32:02.021Z,0.4
2018-03-18T08:33:03.756Z,0.4
2018-03-18T08:34:05.454Z,0.3
2018-03-18T08:35:07.583Z,0.2
2018-03-18T08:36:09.357Z,0.4
2018-03-18T08:37:11.004Z,0.5
2018-03-18T08:38:13.158Z,0.5
2018-03-18T08:39:14.863Z,0.5
2018-03-18T08:40:16.906Z,0.9
2018-03-18T08:41:18.616Z,1.3
2018-03-18T08:42:20.409Z,1.5
2018-03-18T08:43:22.120Z,1.8
2018-03-18T08:44:23.955Z,1.7
2018-03-18T08:45:25.768Z,1.3
2018-03-18T08:46:27.591Z,1.1
2018-03-18T08:47:29.435Z,0.8
2018-03-18T08:48:31.072Z,0.7
2018-03-18T08:49:32.977Z,0.7
2018-03-18T08:50:34.638Z,0.7
2018-03-18T08:51:36.536Z,0.5
2018-03-18T08:52:38.356Z,0.7
2018-03-18T08:53:40.163Z,0.7
2018-03-18T08:54:41.868Z,0.9
2018-03-18T08:55:43.510Z,0.7
2018-03-18T08:56:45.247Z,0.4
2018-03-18T08:57:46.805Z,0.3
2018-03-18T08:58:48.443Z,0.2
2018-03-18T08:59:50.230Z,0.2
2018-03-18T09:00:52.085Z,0.1
2018-03-18T09:01:53.645Z,0.2
2018-03-18T09:02:55.295Z,0.0
2018-03-18T09:03:57.215Z,-0.0
2018-03-18T09:04:58.927Z,0.0
2018-03-18T09:06:00.498Z,-0.1
2018-03-18T09:07:02.050Z,-0.1
2018-03-18T09:08:03.702Z,-0.1
2018-03-18T09:09:05.342Z,0.0
2018-03-18T09:10:06.984Z,-0.1
2018-03-18T09:11:08.960Z,0.0
2018-03-18T09:12:10.914Z,-0.1
2018-03-18T09:13:12.570Z,-0.2
2018-03-18T09:14:14.565Z,-0.1
2018-03-18T09:15:16.412Z,-0.1
2018-03-18T09:16:18.167Z,-0.1
2018-03-18T09:17:20.019Z,-0.2
2018-03-18T09:18:21.634Z,-0.1
2018-03-18T09:19:23.240Z,-0.0
2018-03-18T09:20:25.051Z,-0.0
2018-03-18T09:21:26.740Z,0.0
2018-03-18T09:22:28.624Z,-0.0
2018-03-18T09:23:30.294Z,0.2
2018-03-18T09:24:32.106Z,0.2
2018-03-18T09:25:33.896Z,0.2
2018-03-18T09:26:35.771Z,0.2
2018-03-18T09:27:37.625Z,0.2
2018-03-18T09:28:39.473Z,0.1
2018-03-18T09:29:41.306Z,0.3
2018-03-18T09:30:43.274Z,0.1
2018-03-18T09:31:44.983Z,0.2
2018-03-18T09:32:46.832Z,0.2
2018-03-18T09:33:48.837Z,0.2
2018-03-18T09:34:50.680Z,0.4
2018-03-18T09:35:52.275Z,0.4
2018-03-18T09:36:54.089Z,0.4
2018-03-18T09:37:55.917Z,0.5
2018-03-18T09:38:57.565Z,0.4
2018-03-18T09:39:59.343Z,0.4
2018-03-18T09:41:01.259Z,0.5
2018-03-18T09:42:03.021Z,0.7
2018-03-18T09:43:04.718Z,0.7
2018-03-18T09:44:06.226Z,0.7
2018-03-18T09:45:07.948Z,0.7
2018-03-18T09:46:09.782Z,0.8
2018-03-18T09:47:11.618Z,0.8
2018-03-18T09:48:13.300Z,0.8
2018-03-18T09:49:15.186Z,0.7
2018-03-18T09:50:16.894Z,0.8
2018-03-18T09:51:18.467Z,0.8
2018-03-18T09:52:20.298Z,0.9
2018-03-18T09:53:22.029Z,0.9
2018-03-18T09:54:23.670Z,1.0
2018-03-18T09:55:25.307Z,0.8
2018-03-18T09:56:27.088Z,0.7
2018-03-18T09:57:28.628Z,0.6
2018-03-18T09:58:30.526Z,0.7
2018-03-18T09:59:32.320Z,0.5
2018-03-18T10:00:33.929Z,0.7
2018-03-18T10:01:35.583Z,0.6
2018-03-18T10:02:37.256Z,0.7
2018-03-18T10:03:38.964Z,0.8
2018-03-18T10:04:40.757Z,0.8
2018-03-18T10:05:42.408Z,0.8
2018-03-18T10:06:44.021Z,0.9
2018-03-18T10:07:45.702Z,0.9
2018-03-18T10:08:47.423Z,1.1
2018-03-18T10:09:48.979Z,1.1
2018-03-18T10:10:50.917Z,1.3
2018-03-18T10:11:52.871Z,1.3
2018-03-18T10:12:54.782Z,1.3
2018-03-18T10:13:56.584Z,1.1
2018-03-18T10:14:58.466Z,1.1
2018-03-18T10:16:00.145Z,1.2
2018-03-18T10:17:01.726Z,1.2
2018-03-18T10:18:03.425Z,1.2
2018-03-18T10:19:05.096Z,1.3
2018-03-18T10:20:07.058Z,1.3
2018-03-18T10:21:09.012Z,1.4
2018-03-18T10:22:10.963Z,1.4
2018-03-18T10:23:12.816Z,1.5
2018-03-18T10:24:14.446Z,1.7
2018-03-18T10:25:16.221Z,1.7
2018-03-18T10:26:18.061Z,1.6
2018-03-18T10:27:19.726Z,1.4
2018-03-18T10:28:21.423Z,1.5
2018-03-18T10:29:23.228Z,1.3
2018-03-18T10:30:25.073Z,1.4
2018-03-18T10:31:26.816Z,1.3
2018-03-18T10:32:28.602Z,1.5
2018-03-18T10:33:30.336Z,1.6
2018-03-18T10:34:32.152Z,1.8
2018-03-18T10:35:33.894Z,1.9
2018-03-18T10:36:35.435Z,2.0
2018-03-18T10:37:37.079Z,2.1
2018-03-18T10:38:38.842Z,2.1
2018-03-18T10:39:40.862Z,2.0
2018-03-18T10:40:42.704Z,1.9
2018-03-18T10:41:44.417Z,2.0
2018-03-18T10:42:46.211Z,2.0
2018-03-18T10:43:47.991Z,2.2
2018-03-18T10:44:49.800Z,2.4
2018-03-18T10:45:51.428Z,2.7
2018-03-18T10:46:53.354Z,2.7
2018-03-18T10:47:55.380Z,2.9
2018-03-18T10:48:57.033Z,3.3
2018-03-18T10:49:58.659Z,3.7
2018-03-18T10:51:00.673Z,3.9
2018-03-18T10:52:02.275Z,3.9
2018-03-18T10:53:04.026Z,4.0
2018-03-18T10:54:05.923Z,4.1
2018-03-18T10:55:07.830Z,4.2
2018-03-18T10:56:09.590Z,3.9
2018-03-18T10:57:11.635Z,4.0
2018-03-18T10:58:13.639Z,4.2
2018-03-18T10:59:15.254Z,4.2
2018-03-18T11:00:16.922Z,3.9
2018-03-18T11:01:18.857Z,3.7
2018-03-18T11:02:20.513Z,3.4
2018-03-18T11:03:22.248Z,3.4
2018-03-18T11:04:24.175Z,3.6
2018-03-18T11:05:26.046Z,4.0
2018-03-18T11:06:28.047Z,4.0
2018-03-18T11:07:30.175Z,4.1
2018-03-18T11:08:31.841Z,3.9
2018-03-18T11:09:33.574Z,3.3
2018-03-18T11:10:35.554Z,3.3
2018-03-18T11:11:37.363Z,3.7
2018-03-18T11:12:39.456Z,3.8
2018-03-18T11:13:41.324Z,4.1
2018-03-18T11:14:43.368Z,4.3
2018-03-18T11:15:45.022Z,4.3
2018-03-18T11:16:46.583Z,4.4
2018-03-18T11:17:48.261Z,4.3
2018-03-18T11:18:50.496Z,4.4
2018-03-18T11:19:52.096Z,4.3
2018-03-18T11:20:54.032Z,4.1
2018-03-18T11:21:56.141Z,3.7
2018-03-18T11:22:57.957Z,3.9
2018-03-18T11:23:59.781Z,3.6
2018-03-18T11:25:01.642Z,3.0
2018-03-18T11:26:03.532Z,3.0
2018-03-18T11:27:05.155Z,3.1
2018-03-18T11:28:06.780Z,3.2
2018-03-18T11:29:08.475Z,3.3
2018-03-18T11:30:10.323Z,3.6
2018-03-18T11:31:12.522Z,3.8
2018-03-18T11:32:14.149Z,3.8
2018-03-18T11:33:16.137Z,4.0
2018-03-18T11:34:17.770Z,4.1
2018-03-18T11:35:19.674Z,4.2
2018-03-18T11:36:21.300Z,4.3
2018-03-18T11:37:23.118Z,4.1
2018-03-18T11:38:24.819Z,4.0
2018-03-18T11:39:26.446Z,3.8
2018-03-18T11:40:28.249Z,4.0
2018-03-18T11:41:29.894Z,4.1
2018-03-18T11:42:31.574Z,3.9
2018-03-18T11:43:33.332Z,3.7
2018-03-18T11:44:35.026Z,3.8
2018-03-18T11:45:36.618Z,3.7
2018-03-18T11:46:38.354Z,3.9
2018-03-18T11:47:40.365Z,3.9
2018-03-18T11:48:42.091Z,3.7
2018-03-18T11:49:44.190Z,3.7
2018-03-18T11:50:46.090Z,3.5
2018-03-18T11:51:47.908Z,3.6
2018-03-18T11:52:49.773Z,3.5
2018-03-18T11:53:51.452Z,3.8
2018-03-18T11:54:53.192Z,4.1
2018-03-18T11:55:54.934Z,4.4
2018-03-18T11:56:56.769Z,4.4
2018-03-18T11:57:58.561Z,4.2
2018-03-18T11:59:00.331Z,4.3
2018-03-18T12:00:02.278Z,4.5
2018-03-18T12:01:03.904Z,4.5
2018-03-18T12:02:05.551Z,4.2
2018-03-18T12:03:07.844Z,4.2
2018-03-18T12:04:09.763Z,3.8
2018-03-18T12:05:11.498Z,3.7
2018-03-18T12:06:13.424Z,3.7
2018-03-18T12:07:15.173Z,3.5
2018-03-18T12:08:17.072Z,3.6
2018-03-18T12:09:19.048Z,4.1
2018-03-18T12:10:21.038Z,4.2
2018-03-18T12:11:22.869Z,4.2
2018-03-18T12:12:24.587Z,4.2
2018-03-18T12:13:26.558Z,4.3
2018-03-18T12:14:28.441Z,4.4
2018-03-18T12:15:30.116Z,4.3
2018-03-18T12:16:32.095Z,4.5
2018-03-18T12:17:34.142Z,4.4
2018-03-18T12:18:35.911Z,4.6
2018-03-18T12:19:37.606Z,4.4
2018-03-18T12:20:39.744Z,4.3
2018-03-18T12:21:41.722Z,4.3
2018-03-18T12:22:43.394Z,4.5
2018-03-18T12:23:45.262Z,4.7
2018-03-18T12:24:47.224Z,4.7
2018-03-18T12:25:49.038Z,5.0
2018-03-18T12:26:50.916Z,5.0
2018-03-18T12:27:52.766Z,5.2
2018-03-18T12:28:54.406Z,5.1
2018-03-18T12:29:56.194Z,4.9
2018-03-18T12:30:57.903Z,4.9
2018-03-18T12:31:59.730Z,4.8
2018-03-18T12:33:01.697Z,4.8
2018-03-18T12:34:03.418Z,4.9
2018-03-18T12:35:05.094Z,4.8
2018-03-18T12:36:07.109Z,4.6
2018-03-18T12:37:09.151Z,4.4
2018-03-18T12:38:10.910Z,4.3
2018-03-18T12:39:12.987Z,4.0
2018-03-18T12:40:14.645Z,3.8
2018-03-18T12:41:16.554Z,3.7
2018-03-18T12:42:18.329Z,3.7
2018-03-18T12:43:20.315Z,3.7
2018-03-18T12:44:22.019Z,3.9
2018-03-18T12:45:23.869Z,4.3
2018-03-18T12:46:25.873Z,4.8
2018-03-18T12:47:27.684Z,5.0
2018-03-18T12:48:29.923Z,5.0
2018-03-18T12:49:31.577Z,5.1
2018-03-18T12:50:33.308Z,5.0
2018-03-18T12:51:35.358Z,5.1
2018-03-18T12:52:37.178Z,5.2
2018-03-18T12:53:39.169Z,5.5
2018-03-18T12:54:41.234Z,5.5
2018-03-18T12:55:43.130Z,5.6
2018-03-18T12:56:45.077Z,5.3
2018-03-18T12:57:47.098Z,5.2
2018-03-18T12:58:48.875Z,5.2
2018-03-18T12:59:51.180Z,5.0
2018-03-18T13:00:53.209Z,5.2
2018-03-18T13:01:55.186Z,5.1
2018-03-18T13:02:56.925Z,5.1
2018-03-18T13:03:59.011Z,4.9
2018-03-18T13:05:01.151Z,5.0
2018-03-18T13:06:02.835Z,4.9
2018-03-18T13:07:04.801Z,5.0
2018-03-18T13:08:06.491Z,5.3
2018-03-18T13:09:08.253Z,5.4
2018-03-18T13:10:10.289Z,5.2
2018-03-18T13:11:11.940Z,4.9
2018-03-18T13:12:13.630Z,4.7
2018-03-18T13:13:15.697Z,4.5
2018-03-18T13:14:17.802Z,4.4
2018-03-18T13:15:19.810Z,4.2
2018-03-18T13:16:21.608Z,4.1
2018-03-18T13:17:23.384Z,3.9
2018-03-18T13:18:25.423Z,3.8
2018-03-18T13:19:27.206Z,4.0
2018-03-18T13:20:29.288Z,4.3
2018-03-18T13:21:31.212Z,4.3
2018-03-18T13:22:33.206Z,4.3
2018-03-18T13:23:34.937Z,4.2
2018-03-18T13:24:36.727Z,4.2
2018-03-18T13:25:38.502Z,4.3
2018-03-18T13:26:40.530Z,4.2
2018-03-18T13:27:42.488Z,4.0
2018-03-18T13:28:44.235Z,3.8
2018-03-18T13:29:46.104Z,3.7
2018-03-18T13:30:47.792Z,4.0
2018-03-18T13:31:49.908Z,3.9
2018-03-18T13:32:51.652Z,3.7
2018-03-18T13:33:53.470Z,3.7
2018-03-18T13:34:55.479Z,3.8
2018-03-18T13:35:57.344Z,3.6
2018-03-18T13:36:59.331Z,3.6
2018-03-18T13:38:01.226Z,3.4
2018-03-18T13:39:03.033Z,3.2
2018-03-18T13:40:04.812Z,3.2
2018-03-18T13:41:06.694Z,3.0
2018-03-18T13:42:08.421Z,2.8
2018-03-18T13:43:10.474Z,2.6
2018-03-18T13:44:12.482Z,2.6
2018-03-18T13:45:14.113Z,2.5
2018-03-18T13:46:15.879Z,2.5
2018-03-18T13:47:17.895Z,2.5
2018-03-18T13:48:19.532Z,2.6
2018-03-18T13:49:21.600Z,2.5
2018-03-18T13:50:23.307Z,2.6
2018-03-18T13:51:25.174Z,2.7
2018-03-18T13:52:27.112Z,2.8
2018-03-18T13:53:29.151Z,3.0